createdAt,value
2023-02-17T00:01:23.901Z,7.12
2023-02-17T00:03:51.575Z,6.94
2023-02-17T00:06:21.073Z,7.12
2023-02-17T00:08:48.629Z,7.08
2023-02-17T00:11:15.588Z,6.97
2023-02-17T00:13:42.553Z,7.15
2023-02-17T00:16:11.837Z,6.88
2023-02-17T00:18:38.411Z,6.97
2023-02-17T00:21:17.541Z,7.14
2023-02-17T00:23:45.344Z,7.07
2023-02-17T00:26:12.059Z,7.03
2023-02-17T00:28:38.763Z,6.96
2023-02-17T00:31:16.889Z,7.00
2023-02-17T00:33:43.532Z,6.79
2023-02-17T00:36:17.704Z,6.98
2023-02-17T00:38:45.267Z,6.95
2023-02-17T00:41:12.058Z,6.81
2023-02-17T00:43:38.524Z,6.92
2023-02-17T00:46:05.861Z,6.86
2023-02-17T00:48:33.061Z,6.94
2023-02-17T00:50:59.535Z,6.81
2023-02-17T00:53:26.783Z,6.74
2023-02-17T00:55:53.220Z,6.75
2023-02-17T00:58:19.781Z,6.70
2023-02-17T01:00:46.219Z,6.56
2023-02-17T01:03:12.667Z,6.58
2023-02-17T01:05:43.662Z,6.57
2023-02-17T01:08:10.579Z,6.48
2023-02-17T01:10:41.421Z,6.64
2023-02-17T01:13:08.499Z,6.48
2023-02-17T01:15:44.923Z,6.40
2023-02-17T01:18:14.253Z,6.41
2023-02-17T01:20:41.335Z,6.35
2023-02-17T01:23:09.146Z,6.34
2023-02-17T01:25:44.894Z,6.26
2023-02-17T01:28:18.179Z,6.21
2023-02-17T01:30:46.687Z,6.10
2023-02-17T01:33:13.388Z,6.19
2023-02-17T01:35:39.818Z,6.16
2023-02-17T01:38:06.348Z,6.17
2023-02-17T01:40:32.826Z,6.01
2023-02-17T01:42:59.247Z,6.06
2023-02-17T01:45:36.463Z,6.05
2023-02-17T01:48:05.981Z,6.27
2023-02-17T01:50:37.073Z,6.16
2023-02-17T01:53:07.454Z,6.17
2023-02-17T01:55:35.854Z,6.30
2023-02-17T01:58:07.705Z,6.24
2023-02-17T02:00:36.087Z,6.43
2023-02-17T02:03:06.708Z,6.43
2023-02-17T02:05:33.387Z,6.41
2023-02-17T02:08:00.059Z,6.52
2023-02-17T02:10:26.515Z,6.42
2023-02-17T02:12:53.065Z,6.58
2023-02-17T02:15:28.177Z,6.52
2023-02-17T02:18:03.256Z,6.66
2023-02-17T02:20:41.865Z,6.80
2023-02-17T02:23:33.315Z,6.91
2023-02-17T02:26:35.419Z,6.85
2023-02-17T02:29:26.830Z,6.96
2023-02-17T02:32:21.228Z,7.03
2023-02-17T02:34:54.926Z,6.88
2023-02-17T02:37:32.305Z,6.93
2023-02-17T02:40:03.710Z,6.86
2023-02-17T02:42:32.789Z,6.70
2023-02-17T02:44:59.280Z,6.85
2023-02-17T02:47:53.483Z,6.65
2023-02-17T02:50:28.385Z,6.72
2023-02-17T02:53:03.659Z,6.87
2023-02-17T02:55:43.914Z,6.79
2023-02-17T02:58:23.049Z,6.96
2023-02-17T03:01:05.942Z,6.99
2023-02-17T03:04:05.007Z,7.09
2023-02-17T03:06:39.709Z,7.08
2023-02-17T03:09:12.824Z,7.15
2023-02-17T03:11:41.251Z,7.20
2023-02-17T03:14:11.606Z,7.29
2023-02-17T03:16:40.475Z,7.30
2023-02-17T03:19:08.597Z,7.25
2023-02-17T03:21:43.536Z,7.20
2023-02-17T03:24:10.240Z,7.18
2023-02-17T03:26:36.787Z,7.14
2023-02-17T03:29:03.481Z,7.27
2023-02-17T03:31:30.987Z,7.24
2023-02-17T03:33:58.151Z,7.26
2023-02-17T03:36:24.651Z,7.09
2023-02-17T03:38:51.247Z,7.20
2023-02-17T03:41:17.937Z,7.51
2023-02-17T03:43:44.359Z,7.45
2023-02-17T03:46:15.736Z,7.66
2023-02-17T03:48:42.849Z,7.80
2023-02-17T03:51:17.276Z,7.59
2023-02-17T03:53:44.627Z,7.94
2023-02-17T03:56:12.121Z,7.91
2023-02-17T03:58:39.009Z,7.88
2023-02-17T04:01:06.739Z,7.84
2023-02-17T04:03:34.215Z,7.72
2023-02-17T04:06:00.960Z,7.81
2023-02-17T04:08:28.161Z,7.66
2023-02-17T04:10:56.794Z,7.91
2023-02-17T04:13:23.683Z,7.83
2023-02-17T04:15:50.871Z,7.86
2023-02-17T04:18:17.897Z,7.77
2023-02-17T04:20:45.058Z,7.97
2023-02-17T04:23:11.896Z,7.67
2023-02-17T04:25:38.375Z,7.84
2023-02-17T04:28:07.368Z,7.94
2023-02-17T04:30:34.778Z,7.56
2023-02-17T04:33:01.817Z,7.95
2023-02-17T04:35:28.304Z,7.79
2023-02-17T04:37:55.365Z,7.86
2023-02-17T04:40:22.421Z,7.82
2023-02-17T04:42:48.863Z,7.84
2023-02-17T04:45:15.466Z,8.02
2023-02-17T04:47:42.088Z,7.95
2023-02-17T04:50:09.982Z,7.95
2023-02-17T04:52:36.548Z,8.16
2023-02-17T04:55:03.957Z,8.13
2023-02-17T04:57:30.637Z,8.23
2023-02-17T04:59:57.051Z,8.11
2023-02-17T05:02:25.475Z,7.97
2023-02-17T05:04:51.956Z,8.25
2023-02-17T05:07:18.981Z,8.34
2023-02-17T05:09:45.466Z,8.41
2023-02-17T05:12:12.025Z,8.35
2023-02-17T05:14:38.441Z,8.37
2023-02-17T05:17:04.911Z,8.26
2023-02-17T05:19:31.412Z,8.10
2023-02-17T05:21:57.834Z,8.30
2023-02-17T05:24:24.351Z,8.23
2023-02-17T05:26:50.778Z,8.44
2023-02-17T05:29:17.252Z,8.35
2023-02-17T05:31:43.842Z,8.45
2023-02-17T05:34:10.376Z,8.17
2023-02-17T05:36:36.824Z,8.21
2023-02-17T05:39:03.335Z,7.91
2023-02-17T05:41:29.758Z,8.26
2023-02-17T05:43:56.168Z,8.32
2023-02-17T05:46:23.114Z,8.24
2023-02-17T05:48:49.806Z,8.25
2023-02-17T05:51:19.159Z,8.21
2023-02-17T05:53:45.670Z,8.32
2023-02-17T05:56:14.737Z,8.34
2023-02-17T05:58:41.152Z,8.40
2023-02-17T06:01:09.452Z,8.27
2023-02-17T06:03:35.928Z,8.25
2023-02-17T06:06:02.530Z,8.50
2023-02-17T06:08:28.968Z,8.55
2023-02-17T06:10:55.634Z,8.57
2023-02-17T06:13:22.086Z,8.58
2023-02-17T06:15:48.777Z,8.53
2023-02-17T06:18:15.291Z,8.50
2023-02-17T06:20:42.031Z,8.63
2023-02-17T06:23:08.525Z,8.52
2023-02-17T06:25:34.938Z,8.43
2023-02-17T06:28:01.363Z,8.43
2023-02-17T06:30:27.855Z,8.35
2023-02-17T06:32:54.332Z,8.40
2023-02-17T06:35:20.930Z,8.23
2023-02-17T06:37:47.381Z,8.32
2023-02-17T06:40:14.230Z,8.16
2023-02-17T06:42:40.681Z,8.10
2023-02-17T06:45:07.907Z,8.15
2023-02-17T06:47:34.841Z,8.12
2023-02-17T06:50:01.325Z,8.19
2023-02-17T06:52:28.144Z,8.38
2023-02-17T06:54:54.638Z,8.30
2023-02-17T06:57:21.368Z,8.39
2023-02-17T06:59:47.826Z,8.26
2023-02-17T07:02:14.719Z,8.62
2023-02-17T07:04:42.451Z,8.34
2023-02-17T07:07:10.249Z,8.67
2023-02-17T07:09:38.470Z,8.64
2023-02-17T07:12:05.881Z,8.67
2023-02-17T07:14:34.470Z,8.74
2023-02-17T07:17:01.718Z,8.56
2023-02-17T07:19:28.326Z,8.71
2023-02-17T07:21:54.872Z,8.86
2023-02-17T07:24:21.502Z,8.82
2023-02-17T07:26:48.074Z,8.84
2023-02-17T07:29:14.652Z,9.00
2023-02-17T07:31:41.491Z,9.18
2023-02-17T07:34:08.018Z,9.13
2023-02-17T07:36:34.768Z,9.16
2023-02-17T07:39:03.406Z,9.41
2023-02-17T07:41:30.673Z,9.47
2023-02-17T07:43:58.566Z,9.52
2023-02-17T07:46:26.146Z,9.47
2023-02-17T07:48:52.639Z,9.43
2023-02-17T07:51:22.223Z,9.50
2023-02-17T07:53:49.776Z,9.55
2023-02-17T07:56:18.771Z,9.74
2023-02-17T07:58:46.181Z,9.82
2023-02-17T08:01:22.765Z,9.74
2023-02-17T08:03:50.206Z,9.75
2023-02-17T08:06:23.852Z,9.48
2023-02-17T08:09:09.866Z,9.65
2023-02-17T08:11:55.258Z,9.73
2023-02-17T08:14:23.394Z,9.73
2023-02-17T08:16:49.974Z,9.81
2023-02-17T08:19:16.603Z,9.73
2023-02-17T08:21:43.198Z,9.72
2023-02-17T08:24:10.071Z,9.81
2023-02-17T08:26:36.660Z,9.73
2023-02-17T08:29:03.282Z,9.74
2023-02-17T08:31:34.944Z,9.77
2023-02-17T08:34:04.529Z,9.64
2023-02-17T08:36:31.172Z,9.60
2023-02-17T08:38:58.466Z,9.47
2023-02-17T08:41:30.968Z,9.41
2023-02-17T08:44:00.690Z,9.46
2023-02-17T08:46:28.701Z,9.67
2023-02-17T08:48:56.256Z,9.69
2023-02-17T08:51:27.832Z,9.70
2023-02-17T08:53:58.203Z,9.54
2023-02-17T08:56:26.295Z,9.64
2023-02-17T08:58:53.662Z,9.57
2023-02-17T09:01:21.231Z,9.54
2023-02-17T09:03:49.601Z,9.44
2023-02-17T09:06:16.811Z,9.39
2023-02-17T09:08:44.915Z,9.28
2023-02-17T09:11:15.291Z,9.44
2023-02-17T09:13:41.775Z,9.33
2023-02-17T09:16:08.637Z,9.27
2023-02-17T09:18:35.371Z,9.47
2023-02-17T09:21:11.892Z,9.47
2023-02-17T09:23:39.088Z,9.64
2023-02-17T09:26:08.630Z,9.67
2023-02-17T09:28:36.210Z,9.59
2023-02-17T09:31:14.430Z,9.73
2023-02-17T09:33:42.100Z,9.74
2023-02-17T09:36:10.784Z,9.89
2023-02-17T09:38:39.342Z,9.98
2023-02-17T09:41:34.612Z,10.12
2023-02-17T09:44:01.920Z,10.01
2023-02-17T09:47:03.026Z,10.10
2023-02-17T09:49:39.891Z,10.20
2023-02-17T09:52:29.424Z,10.22
2023-02-17T09:55:11.513Z,10.34
2023-02-17T09:57:51.193Z,10.46
2023-02-17T10:00:23.962Z,10.61
2023-02-17T10:03:06.378Z,10.57
2023-02-17T10:05:42.144Z,10.63
2023-02-17T10:08:17.405Z,10.74
2023-02-17T10:10:54.224Z,10.87
2023-02-17T10:13:23.667Z,11.03
2023-02-17T10:15:53.345Z,11.38
2023-02-17T10:18:36.448Z,11.31
2023-02-17T10:21:07.472Z,11.40
2023-02-17T10:23:35.045Z,11.27
2023-02-17T10:26:20.421Z,11.45
2023-02-17T10:28:55.999Z,11.65
2023-02-17T10:31:27.100Z,11.52
2023-02-17T10:34:05.000Z,11.80
2023-02-17T10:36:44.964Z,12.05
2023-02-17T10:39:22.895Z,12.13
2023-02-17T10:41:52.700Z,12.12
2023-02-17T10:44:23.149Z,11.91
2023-02-17T10:46:51.640Z,11.99
2023-02-17T10:49:30.118Z,12.02
2023-02-17T10:52:11.803Z,12.28
2023-02-17T10:54:50.408Z,12.51
2023-02-17T10:57:19.549Z,12.49
2023-02-17T10:59:47.907Z,12.74
2023-02-17T11:02:19.420Z,12.95
2023-02-17T11:04:49.454Z,12.93
2023-02-17T11:07:18.383Z,12.86
2023-02-17T11:09:48.816Z,12.84
2023-02-17T11:12:32.817Z,12.78
2023-02-17T11:14:59.409Z,12.75
2023-02-17T11:17:39.399Z,12.86
2023-02-17T11:20:09.212Z,12.78
2023-02-17T11:22:45.775Z,12.85
2023-02-17T11:25:25.086Z,12.87
2023-02-17T11:27:56.669Z,12.89
2023-02-17T11:30:24.331Z,12.96
2023-02-17T11:32:50.928Z,12.99
2023-02-17T11:35:35.932Z,12.97
2023-02-17T11:38:04.241Z,12.96
2023-02-17T11:40:32.725Z,13.08
2023-02-17T11:43:01.198Z,12.85
2023-02-17T11:45:49.355Z,12.76
2023-02-17T11:48:28.584Z,12.73
2023-02-17T11:51:17.118Z,12.85
2023-02-17T11:54:17.916Z,12.90
2023-02-17T11:56:55.206Z,12.95
2023-02-17T11:59:43.573Z,12.94
2023-02-17T12:02:18.055Z,12.85
2023-02-17T12:04:51.450Z,12.90
2023-02-17T12:07:42.232Z,12.96
2023-02-17T12:10:16.360Z,13.39
2023-02-17T12:13:16.077Z,13.53
2023-02-17T12:15:56.741Z,13.42
2023-02-17T12:18:44.472Z,13.35
2023-02-17T12:21:20.071Z,13.10
2023-02-17T12:24:04.771Z,13.09
2023-02-17T12:26:48.041Z,13.04
2023-02-17T12:29:26.516Z,13.01
2023-02-17T12:32:20.135Z,13.00
2023-02-17T12:34:59.282Z,12.88
2023-02-17T12:37:32.053Z,12.92
2023-02-17T12:40:16.123Z,12.87
2023-02-17T12:42:53.884Z,12.90
2023-02-17T12:45:23.841Z,13.03
2023-02-17T12:47:55.187Z,13.06
2023-02-17T12:50:27.436Z,13.02
2023-02-17T12:52:58.551Z,12.92
2023-02-17T12:55:30.378Z,12.90
2023-02-17T12:58:01.124Z,12.86
2023-02-17T13:00:34.835Z,12.89
2023-02-17T13:03:03.250Z,12.93
2023-02-17T13:05:47.943Z,12.85
2023-02-17T13:08:36.280Z,12.94
2023-02-17T13:11:10.646Z,12.81
2023-02-17T13:13:37.195Z,12.68
2023-02-17T13:16:12.306Z,12.85
2023-02-17T13:18:43.977Z,12.65
2023-02-17T13:21:33.141Z,12.63
2023-02-17T13:24:03.708Z,12.55
2023-02-17T13:26:35.790Z,12.55
2023-02-17T13:29:11.063Z,12.44
2023-02-17T13:31:59.155Z,12.42
2023-02-17T13:34:27.350Z,12.26
2023-02-17T13:36:54.356Z,12.17
2023-02-17T13:39:27.416Z,12.33
2023-02-17T13:41:56.223Z,12.28
2023-02-17T13:44:40.795Z,12.38
2023-02-17T13:47:18.341Z,12.31
2023-02-17T13:49:52.838Z,12.25
2023-02-17T13:52:24.433Z,12.18
2023-02-17T13:54:56.257Z,12.06
2023-02-17T13:57:23.684Z,11.94
2023-02-17T13:59:50.154Z,12.20
2023-02-17T14:02:35.178Z,12.09
2023-02-17T14:05:16.141Z,12.24
2023-02-17T14:07:42.643Z,12.14
2023-02-17T14:10:21.571Z,12.09
2023-02-17T14:12:49.208Z,12.12
2023-02-17T14:15:22.262Z,12.10
2023-02-17T14:17:48.908Z,12.09
2023-02-17T14:20:31.310Z,12.18
2023-02-17T14:23:11.579Z,12.15
2023-02-17T14:25:42.484Z,12.18
2023-02-17T14:28:26.595Z,12.15
2023-02-17T14:30:53.803Z,12.08
2023-02-17T14:33:24.135Z,12.20
2023-02-17T14:36:00.087Z,12.26
2023-02-17T14:38:35.234Z,12.25
2023-02-17T14:41:01.742Z,12.09
2023-02-17T14:43:28.240Z,12.11
2023-02-17T14:45:55.003Z,12.01
2023-02-17T14:48:22.024Z,12.15
2023-02-17T14:50:49.313Z,12.14
2023-02-17T14:53:29.680Z,12.08
2023-02-17T14:56:02.099Z,12.04
2023-02-17T14:58:29.674Z,12.03
2023-02-17T15:00:56.919Z,11.95
2023-02-17T15:03:23.605Z,11.91
2023-02-17T15:05:51.076Z,11.93
2023-02-17T15:08:26.391Z,12.02
2023-02-17T15:10:53.200Z,11.85
2023-02-17T15:13:21.785Z,11.92
2023-02-17T15:15:49.638Z,11.79
2023-02-17T15:18:18.722Z,11.83
2023-02-17T15:20:50.081Z,11.95
2023-02-17T15:23:18.515Z,11.95
2023-02-17T15:25:45.601Z,11.86
2023-02-17T15:28:14.536Z,11.71
2023-02-17T15:30:41.329Z,11.73
2023-02-17T15:33:13.238Z,11.81
2023-02-17T15:35:40.791Z,11.71
2023-02-17T15:38:11.453Z,11.94
2023-02-17T15:40:38.010Z,11.78
2023-02-17T15:43:04.965Z,11.80
2023-02-17T15:45:33.080Z,11.65
2023-02-17T15:48:05.061Z,11.78
2023-02-17T15:50:32.100Z,11.92
2023-02-17T15:52:58.781Z,11.86
2023-02-17T15:55:28.186Z,11.84
2023-02-17T15:57:58.011Z,11.83
2023-02-17T16:00:31.165Z,11.79
2023-02-17T16:02:57.703Z,11.62
2023-02-17T16:05:27.839Z,11.59
2023-02-17T16:07:55.039Z,11.59
2023-02-17T16:10:24.416Z,11.67
2023-02-17T16:12:52.189Z,11.55
2023-02-17T16:15:21.657Z,11.54
2023-02-17T16:17:49.001Z,11.49
2023-02-17T16:20:20.036Z,11.39
2023-02-17T16:22:47.067Z,11.43
2023-02-17T16:25:16.840Z,11.32
2023-02-17T16:27:45.176Z,11.33
2023-02-17T16:30:17.370Z,11.25
2023-02-17T16:32:43.908Z,11.28
2023-02-17T16:35:24.968Z,11.31
2023-02-17T16:37:53.183Z,11.20
2023-02-17T16:40:22.546Z,11.30
2023-02-17T16:42:49.401Z,11.26
2023-02-17T16:45:17.814Z,11.13
2023-02-17T16:47:47.156Z,10.99
2023-02-17T16:50:39.840Z,11.08
2023-02-17T16:53:10.221Z,10.87
2023-02-17T16:55:37.173Z,11.03
2023-02-17T16:58:04.449Z,11.12
2023-02-17T17:00:33.071Z,10.83
2023-02-17T17:02:59.706Z,10.90
2023-02-17T17:05:28.042Z,10.95
2023-02-17T17:07:54.866Z,10.80
2023-02-17T17:10:25.185Z,10.85
2023-02-17T17:12:51.818Z,10.81
2023-02-17T17:15:19.231Z,10.86
2023-02-17T17:17:54.656Z,10.78
2023-02-17T17:20:24.038Z,10.62
2023-02-17T17:22:51.403Z,10.67
2023-02-17T17:25:19.960Z,10.63
2023-02-17T17:27:46.477Z,10.63
2023-02-17T17:30:17.415Z,10.71
2023-02-17T17:32:43.912Z,10.48
2023-02-17T17:35:10.361Z,10.50
2023-02-17T17:37:39.138Z,10.56
2023-02-17T17:40:07.176Z,10.60
2023-02-17T17:42:33.689Z,10.51
2023-02-17T17:45:00.218Z,10.39
2023-02-17T17:47:30.092Z,10.43
2023-02-17T17:49:56.796Z,10.27
2023-02-17T17:52:24.129Z,10.24
2023-02-17T17:54:50.817Z,10.34
2023-02-17T17:57:17.276Z,10.41
2023-02-17T17:59:43.756Z,10.46
2023-02-17T18:02:10.193Z,10.40
2023-02-17T18:04:36.718Z,10.30
2023-02-17T18:07:03.362Z,10.34
2023-02-17T18:09:35.059Z,10.20
2023-02-17T18:12:07.229Z,10.34
2023-02-17T18:14:36.399Z,10.25
2023-02-17T18:17:03.159Z,10.32
2023-02-17T18:19:31.071Z,10.17
2023-02-17T18:21:57.760Z,10.27
2023-02-17T18:24:24.172Z,10.15
2023-02-17T18:26:52.199Z,10.27
2023-02-17T18:29:19.236Z,10.30
2023-02-17T18:31:45.828Z,10.26
2023-02-17T18:34:12.846Z,10.35
2023-02-17T18:36:39.320Z,10.34
2023-02-17T18:39:05.789Z,10.19
2023-02-17T18:41:34.158Z,10.29
2023-02-17T18:44:03.060Z,10.27
2023-02-17T18:46:29.583Z,10.19
2023-02-17T18:48:56.750Z,10.24
2023-02-17T18:51:23.902Z,10.17
2023-02-17T18:53:51.221Z,10.20
2023-02-17T18:56:21.525Z,10.32
2023-02-17T18:58:49.804Z,10.22
2023-02-17T19:01:35.326Z,10.46
2023-02-17T19:04:02.227Z,10.28
2023-02-17T19:06:31.811Z,10.31
2023-02-17T19:09:00.198Z,10.21
2023-02-17T19:11:27.241Z,10.27
2023-02-17T19:13:53.711Z,10.26
2023-02-17T19:16:27.054Z,10.43
2023-02-17T19:18:54.669Z,10.31
2023-02-17T19:21:21.920Z,10.26
2023-02-17T19:23:49.728Z,10.36
2023-02-17T19:26:17.344Z,10.53
2023-02-17T19:28:45.091Z,10.45
2023-02-17T19:31:15.248Z,10.55
2023-02-17T19:33:42.997Z,10.45
2023-02-17T19:36:12.332Z,10.38
2023-02-17T19:38:39.385Z,10.37
2023-02-17T19:41:08.521Z,10.53
2023-02-17T19:43:35.065Z,10.51
2023-02-17T19:46:01.549Z,10.38
2023-02-17T19:48:28.119Z,10.28
2023-02-17T19:51:06.137Z,10.43
2023-02-17T19:53:33.282Z,10.27
2023-02-17T19:56:16.680Z,10.37
2023-02-17T19:58:44.328Z,10.06
2023-02-17T20:01:17.394Z,10.32
2023-02-17T20:03:44.550Z,10.35
2023-02-17T20:06:23.372Z,10.43
2023-02-17T20:08:57.762Z,10.48
2023-02-17T20:11:25.243Z,10.35
2023-02-17T20:13:52.178Z,10.10
2023-02-17T20:16:18.785Z,10.32
2023-02-17T20:18:47.862Z,10.18
2023-02-17T20:21:26.303Z,10.12
2023-02-17T20:23:52.806Z,10.23
2023-02-17T20:26:22.552Z,10.37
2023-02-17T20:28:49.630Z,10.19
2023-02-17T20:31:16.819Z,10.23
2023-02-17T20:33:43.505Z,10.32
2023-02-17T20:36:11.714Z,10.29
2023-02-17T20:38:39.551Z,10.28
2023-02-17T20:41:07.934Z,10.27
2023-02-17T20:43:37.544Z,10.41
2023-02-17T20:46:04.295Z,10.39
2023-02-17T20:48:30.740Z,10.53
2023-02-17T20:50:58.634Z,10.48
2023-02-17T20:53:25.758Z,10.47
2023-02-17T20:55:52.628Z,10.66
2023-02-17T20:58:19.641Z,10.71
2023-02-17T21:00:46.304Z,10.62
2023-02-17T21:03:12.887Z,10.56
2023-02-17T21:05:39.474Z,10.62
2023-02-17T21:08:06.232Z,10.64
2023-02-17T21:10:33.336Z,10.81
2023-02-17T21:12:59.799Z,10.83
2023-02-17T21:15:27.242Z,10.94
2023-02-17T21:17:53.764Z,10.81
2023-02-17T21:20:21.215Z,10.88
2023-02-17T21:22:48.233Z,10.85
2023-02-17T21:25:14.672Z,10.84
2023-02-17T21:27:41.153Z,10.87
2023-02-17T21:30:09.351Z,11.06
2023-02-17T21:32:35.929Z,11.02
2023-02-17T21:35:02.485Z,10.94
2023-02-17T21:37:28.909Z,10.87
2023-02-17T21:39:55.415Z,10.84
2023-02-17T21:42:43.191Z,10.87
2023-02-17T21:45:11.127Z,10.78
2023-02-17T21:47:37.571Z,10.85
2023-02-17T21:50:04.512Z,10.83
2023-02-17T21:52:31.000Z,10.81
2023-02-17T21:54:57.503Z,10.83
2023-02-17T21:57:23.920Z,10.71
2023-02-17T21:59:50.515Z,10.90
2023-02-17T22:02:16.948Z,10.83
2023-02-17T22:04:43.418Z,10.76
2023-02-17T22:07:10.819Z,10.90
2023-02-17T22:09:37.504Z,10.83
2023-02-17T22:12:03.968Z,10.90
2023-02-17T22:14:30.402Z,10.77
2023-02-17T22:16:57.425Z,10.80
2023-02-17T22:19:24.990Z,10.95
2023-02-17T22:21:51.958Z,10.99
2023-02-17T22:24:20.756Z,10.89
2023-02-17T22:26:48.124Z,10.93
2023-02-17T22:29:14.708Z,10.89
2023-02-17T22:31:41.465Z,10.88
2023-02-17T22:34:09.923Z,10.98
2023-02-17T22:36:37.519Z,10.96
2023-02-17T22:39:06.220Z,10.94
2023-02-17T22:41:34.050Z,10.78
2023-02-17T22:44:01.772Z,10.96
2023-02-17T22:46:28.701Z,10.94
2023-02-17T22:48:55.887Z,11.15
2023-02-17T22:51:28.527Z,10.93
2023-02-17T22:53:55.262Z,10.88
2023-02-17T22:56:22.201Z,10.94
2023-02-17T22:58:55.235Z,10.84
2023-02-17T23:01:22.114Z,10.80
2023-02-17T23:03:54.422Z,10.84
2023-02-17T23:06:35.477Z,10.88
2023-02-17T23:09:02.838Z,10.84
2023-02-17T23:11:57.529Z,10.72
2023-02-17T23:14:27.879Z,10.79
2023-02-17T23:16:57.942Z,10.76
2023-02-17T23:19:24.800Z,10.70
2023-02-17T23:21:54.588Z,10.75
2023-02-17T23:24:22.485Z,10.77
2023-02-17T23:26:49.593Z,10.77
2023-02-17T23:29:17.093Z,10.64
2023-02-17T23:31:44.038Z,10.65
2023-02-17T23:34:12.868Z,10.53
2023-02-17T23:36:40.474Z,10.31
2023-02-17T23:39:07.439Z,10.41
2023-02-17T23:41:38.304Z,10.42
2023-02-17T23:44:07.450Z,10.40
2023-02-17T23:46:34.422Z,10.36
2023-02-17T23:49:01.069Z,10.32
2023-02-17T23:51:27.701Z,10.52
2023-02-17T23:53:54.142Z,10.32
2023-02-17T23:56:24.020Z,10.15
2023-02-17T23:58:50.702Z,10.37
